Time;durP1;ratioP1;P1;durP2;ratioP2;P2;SDS_P1;SDS_P2;PMS_P1;PMS_P2;Temp;Humidity;BMP_temperature;BMP_pressure;BME280_temperature;BME280_humidity;BME280_pressure;Samples;Min_cycle;Max_cycle;Signal;HPM_P1;HPM_P2
2023/09/09 00:00:57;;;;;;;8.20;7.50;;;;;;;-141.70;100.00;74765.69;4992584;28;20801;-78
2023/09/09 00:03:43;;;;;;;8.30;7.70;;;;;;;-141.70;100.00;74765.69;4992137;28;20796;-78
2023/09/09 00:06:28;;;;;;;8.77;8.07;;;;;;;-141.70;100.00;74765.69;4986640;28;20837;-78
2023/09/09 00:09:15;;;;;;;8.90;8.27;;;;;;;-141.70;100.00;74765.69;4993164;28;20835;-78
2023/09/09 00:12:02;;;;;;;7.93;7.30;;;;;;;-141.70;100.00;74765.69;4987271;28;20954;-78
2023/09/09 00:14:47;;;;;;;8.10;7.53;;;;;;;-141.70;100.00;74765.69;4993208;28;20801;-79
2023/09/09 00:17:33;;;;;;;8.83;8.20;;;;;;;-141.70;100.00;74765.69;4992648;28;20795;-78
2023/09/09 00:20:18;;;;;;;8.00;7.40;;;;;;;-141.70;100.00;74765.69;4992641;28;20827;-78
2023/09/09 00:23:07;;;;;;;7.93;7.33;;;;;;;-141.70;100.00;74765.69;4992660;28;20458;-77
2023/09/09 00:25:53;;;;;;;8.30;7.50;;;;;;;-141.70;100.00;74765.69;4985466;28;20433;-78
2023/09/09 00:28:43;;;;;;;8.03;7.43;;;;;;;-141.70;100.00;74765.69;4991982;28;20808;-78
2023/09/09 00:31:28;;;;;;;8.27;7.67;;;;;;;-141.70;100.00;74765.69;4987014;28;20800;-78
2023/09/09 00:34:13;;;;;;;9.33;8.57;;;;;;;-141.70;100.00;74765.69;4992734;28;20800;-79
2023/09/09 00:36:58;;;;;;;8.07;7.30;;;;;;;-141.70;100.00;74765.69;4992260;28;20812;-79
2023/09/09 00:39:43;;;;;;;10.20;7.50;;;;;;;-141.70;100.00;74765.69;4977366;28;20823;-79
2023/09/09 00:42:29;;;;;;;8.37;7.77;;;;;;;-141.70;100.00;74765.69;4978397;28;20781;-79
2023/09/09 00:45:16;;;;;;;8.83;8.13;;;;;;;-141.70;100.00;74765.69;4984183;28;20821;-79
2023/09/09 00:48:01;;;;;;;8.07;7.47;;;;;;;-141.70;100.00;74765.69;4968969;28;20813;-79
2023/09/09 00:50:46;;;;;;;9.40;7.70;;;;;;;-141.70;100.00;74765.69;4985601;28;20864;-79
2023/09/09 00:53:32;;;;;;;7.83;7.33;;;;;;;-141.70;100.00;74765.69;4992723;28;20865;-79
2023/09/09 00:56:18;;;;;;;8.37;7.67;;;;;;;-141.70;100.00;74765.69;4986897;28;20470;-79
2023/09/09 00:59:05;;;;;;;8.40;7.80;;;;;;;-141.70;100.00;74765.69;4992414;28;20827;-79
2023/09/09 01:01:51;;;;;;;8.33;7.73;;;;;;;-141.70;100.00;74765.69;4977624;28;20781;-79
2023/09/09 01:04:37;;;;;;;9.10;8.50;;;;;;;-141.70;100.00;74765.69;4991698;28;20871;-79
2023/09/09 01:07:22;;;;;;;8.50;7.90;;;;;;;-141.70;100.00;74765.69;4967347;28;20864;-79
2023/09/09 01:10:08;;;;;;;9.57;8.77;;;;;;;-141.70;100.00;74765.69;4968588;28;20829;-79
2023/09/09 01:12:54;;;;;;;9.80;8.90;;;;;;;-141.70;100.00;74765.69;4992107;28;20805;-79
2023/09/09 01:15:40;;;;;;;8.93;8.13;;;;;;;-141.70;100.00;74765.69;4994844;28;20948;-78
2023/09/09 01:18:28;;;;;;;8.67;8.07;;;;;;;-141.70;100.00;74765.69;4992592;28;20804;-78
2023/09/09 01:21:17;;;;;;;8.30;7.70;;;;;;;-141.70;100.00;74765.69;4974728;28;20473;-77
2023/09/09 01:24:04;;;;;;;9.33;8.63;;;;;;;-141.70;100.00;74765.69;4996469;28;20802;-78
2023/09/09 01:26:49;;;;;;;9.20;8.50;;;;;;;-141.70;100.00;74765.69;4994957;28;20501;-79
2023/09/09 01:29:34;;;;;;;8.70;7.90;;;;;;;-141.70;100.00;74765.69;4964491;28;20832;-79
2023/09/09 01:32:20;;;;;;;10.03;9.23;;;;;;;-141.70;100.00;74765.69;4980701;28;20803;-79
2023/09/09 01:35:06;;;;;;;9.00;8.30;;;;;;;-141.70;100.00;74765.69;4973167;28;20828;-79
2023/09/09 01:37:52;;;;;;;8.73;8.03;;;;;;;-141.70;100.00;74765.69;4972573;28;20804;-78
2023/09/09 01:40:39;;;;;;;8.70;8.10;;;;;;;-141.70;100.00;74765.69;4973136;28;20816;-79
2023/09/09 01:43:25;;;;;;;8.33;7.70;;;;;;;-141.70;100.00;74765.69;4995322;28;20881;-79
2023/09/09 01:46:10;;;;;;;8.57;7.87;;;;;;;-141.70;100.00;74765.69;4980220;28;20430;-79
2023/09/09 01:48:57;;;;;;;8.50;7.70;;;;;;;-141.70;100.00;74765.69;4994740;28;20910;-79
2023/09/09 01:51:43;;;;;;;9.17;8.37;;;;;;;-141.70;100.00;74765.69;4974466;28;20853;-79
2023/09/09 01:54:29;;;;;;;8.90;8.27;;;;;;;-141.70;100.00;74765.69;4995357;28;20789;-79
2023/09/09 01:57:16;;;;;;;8.77;8.17;;;;;;;-141.70;100.00;74765.69;4979967;28;20801;-79
2023/09/09 02:00:07;;;;;;;8.67;7.83;;;;;;;-141.70;100.00;74765.69;4972231;28;20879;-78
2023/09/09 02:02:58;;;;;;;8.37;7.50;;;;;;;-141.70;100.00;74765.69;4994670;28;20442;-79
2023/09/09 02:05:43;;;;;;;8.27;7.67;;;;;;;-141.70;100.00;74765.69;4988912;28;20788;-79
2023/09/09 02:08:29;;;;;;;8.97;8.27;;;;;;;-141.70;100.00;74765.69;4979725;28;20796;-79
2023/09/09 02:11:14;;;;;;;8.60;7.90;;;;;;;-141.70;100.00;74765.69;4994014;28;20831;-79
2023/09/09 02:14:01;;;;;;;8.40;7.80;;;;;;;-141.70;100.00;74765.69;4994214;28;20796;-79
2023/09/09 02:16:46;;;;;;;9.37;8.57;;;;;;;-141.70;100.00;74765.69;4979255;28;20623;-80
2023/09/09 02:19:31;;;;;;;8.37;7.77;;;;;;;-141.70;100.00;74765.69;4993022;28;21151;-80
2023/09/09 02:22:16;;;;;;;8.47;7.87;;;;;;;-141.70;100.00;74765.69;4982514;28;20811;-80
2023/09/09 02:25:03;;;;;;;7.70;7.20;;;;;;;-141.70;100.00;74765.69;4973986;28;20435;-79
2023/09/09 02:27:48;;;;;;;8.70;8.10;;;;;;;-141.70;100.00;74765.69;4972572;28;20779;-77
2023/09/09 02:30:35;;;;;;;8.50;7.90;;;;;;;-141.70;100.00;74765.69;4988751;28;20834;-79
2023/09/09 02:33:20;;;;;;;8.57;7.77;;;;;;;-141.70;100.00;74765.69;4994492;28;20808;-79
2023/09/09 02:36:06;;;;;;;8.70;8.00;;;;;;;-141.70;100.00;74765.69;4994722;28;20568;-79
2023/09/09 02:38:51;;;;;;;8.70;8.00;;;;;;;-141.70;100.00;74765.69;4979427;28;20848;-79
2023/09/09 02:41:37;;;;;;;8.23;7.60;;;;;;;-141.70;100.00;74765.69;4990567;28;20506;-79
2023/09/09 02:44:23;;;;;;;8.80;8.10;;;;;;;-141.70;100.00;74765.69;4980182;28;20927;-79
2023/09/09 02:47:12;;;;;;;9.40;8.70;;;;;;;-141.70;100.00;74765.69;4969395;28;20920;-79
2023/09/09 02:49:58;;;;;;;8.33;7.67;;;;;;;-141.70;100.00;74765.69;4970946;28;20895;-79
2023/09/09 02:52:43;;;;;;;8.87;8.17;;;;;;;-141.70;100.00;74765.69;4978966;28;20799;-80
2023/09/09 02:55:29;;;;;;;8.80;8.00;;;;;;;-141.70;100.00;74765.69;4995487;28;20821;-79
2023/09/09 02:58:14;;;;;;;9.03;8.33;;;;;;;-141.70;100.00;74765.69;4967592;28;20439;-80
2023/09/09 03:01:04;;;;;;;9.30;8.60;;;;;;;-141.70;100.00;74765.69;4995795;28;20878;-79
2023/09/09 03:03:52;;;;;;;10.13;8.30;;;;;;;-141.70;100.00;74765.69;4972872;28;20852;-79
2023/09/09 03:06:37;;;;;;;10.30;9.40;;;;;;;-141.70;100.00;74765.69;4979717;28;20796;-79
2023/09/09 03:09:23;;;;;;;9.17;8.27;;;;;;;-141.70;100.00;74765.69;4970996;28;20838;-79
2023/09/09 03:12:08;;;;;;;9.33;8.63;;;;;;;-141.70;100.00;74765.69;4996094;28;20466;-80
2023/09/09 03:14:54;;;;;;;8.77;8.17;;;;;;;-141.70;100.00;74765.69;4979396;28;20819;-80
2023/09/09 03:17:40;;;;;;;9.53;8.73;;;;;;;-141.70;100.00;74765.69;4995262;28;20854;-80
2023/09/09 03:20:26;;;;;;;10.10;9.23;;;;;;;-141.70;100.00;74765.69;4995212;28;20465;-80
2023/09/09 03:23:11;;;;;;;8.23;7.73;;;;;;;-141.70;100.00;74765.69;4981429;28;20832;-80
2023/09/09 03:25:57;;;;;;;10.03;9.23;;;;;;;-141.70;100.00;74765.69;4995389;28;20435;-80
2023/09/09 03:28:42;;;;;;;9.13;8.43;;;;;;;-141.70;100.00;74765.69;4995705;28;20441;-79
2023/09/09 03:31:27;;;;;;;9.50;8.80;;;;;;;-141.70;100.00;74765.69;4965913;28;20799;-79
2023/09/09 03:34:13;;;;;;;10.07;9.23;;;;;;;-141.70;100.00;74765.69;4972917;28;20876;-80
2023/09/09 03:37:00;;;;;;;9.27;8.47;;;;;;;-141.70;100.00;74765.69;4973698;28;20824;-79
2023/09/09 03:39:45;;;;;;;9.80;8.93;;;;;;;-141.70;100.00;74765.69;4990027;28;20818;-80
2023/09/09 03:42:32;;;;;;;8.70;8.10;;;;;;;-141.70;100.00;74765.69;4995534;28;20832;-80
2023/09/09 03:45:18;;;;;;;8.50;7.90;;;;;;;-141.70;100.00;74765.69;4976119;28;20461;-80
2023/09/09 03:48:04;;;;;;;8.83;8.23;;;;;;;-141.70;100.00;74765.69;4995814;28;20807;-80
2023/09/09 03:50:49;;;;;;;7.90;7.40;;;;;;;-141.70;100.00;74765.69;4996737;28;20822;-80
2023/09/09 03:53:36;;;;;;;8.80;8.10;;;;;;;-141.70;100.00;74765.69;4995798;28;20442;-81
2023/09/09 03:56:21;;;;;;;8.73;8.03;;;;;;;-141.70;100.00;74765.69;4973877;28;20832;-80
2023/09/09 03:59:06;;;;;;;13.33;8.97;;;;;;;-141.70;100.00;74765.69;4990739;28;20459;-80
2023/09/09 04:01:53;;;;;;;8.70;8.00;;;;;;;-141.70;100.00;74765.69;4979997;28;20899;-80
2023/09/09 04:04:39;;;;;;;9.67;8.87;;;;;;;-141.70;100.00;74765.69;4988382;28;20443;-80
2023/09/09 04:07:24;;;;;;;9.00;8.30;;;;;;;-141.70;100.00;74765.69;4994706;28;20796;-81
2023/09/09 04:10:12;;;;;;;9.37;8.57;;;;;;;-141.70;100.00;74765.69;4995668;28;20461;-81
2023/09/09 04:12:57;;;;;;;8.40;7.80;;;;;;;-141.70;100.00;74765.69;4980288;28;20431;-80
2023/09/09 04:15:43;;;;;;;9.93;9.13;;;;;;;-141.70;100.00;74765.69;4980015;28;20813;-79
2023/09/09 04:18:29;;;;;;;9.00;8.40;;;;;;;-141.70;100.00;74765.69;4972539;28;20804;-80
2023/09/09 04:21:15;;;;;;;9.87;8.90;;;;;;;-141.70;100.00;74765.69;4966714;28;20840;-80
2023/09/09 04:24:00;;;;;;;8.80;8.03;;;;;;;-141.70;100.00;74765.69;4987245;28;20804;-79
2023/09/09 04:26:47;;;;;;;9.00;8.30;;;;;;;-141.70;100.00;74765.69;4964623;28;20796;-80
2023/09/09 04:29:33;;;;;;;9.07;8.37;;;;;;;-141.70;100.00;74765.69;4978702;28;20883;-79
2023/09/09 04:32:18;;;;;;;9.20;8.47;;;;;;;-141.70;100.00;74765.69;4968185;28;20828;-79
2023/09/09 04:35:04;;;;;;;8.80;7.90;;;;;;;-141.70;100.00;74765.69;4978588;28;20442;-81
2023/09/09 04:37:50;;;;;;;11.20;7.83;;;;;;;-141.70;100.00;74765.69;4979004;28;20919;-80
2023/09/09 04:40:39;;;;;;;9.77;8.87;;;;;;;-141.70;100.00;74765.69;4974209;28;20886;-80
2023/09/09 04:43:26;;;;;;;9.23;8.53;;;;;;;-141.70;100.00;74765.69;4972391;28;20871;-79
2023/09/09 04:46:12;;;;;;;9.07;8.17;;;;;;;-141.70;100.00;74765.69;4975195;28;20791;-80
2023/09/09 04:48:57;;;;;;;9.37;8.47;;;;;;;-141.70;100.00;74765.69;4989796;28;20789;-80
2023/09/09 04:51:43;;;;;;;8.87;8.00;;;;;;;-141.70;100.00;74765.69;4998999;28;20844;-79
2023/09/09 04:54:29;;;;;;;9.87;8.97;;;;;;;-141.70;100.00;74765.69;4996026;28;20808;-80
2023/09/09 04:57:14;;;;;;;9.30;8.60;;;;;;;-141.70;100.00;74765.69;4983800;28;20902;-79
2023/09/09 05:00:06;;;;;;;9.10;8.40;;;;;;;-141.70;100.00;74765.69;4997917;28;20824;-78
2023/09/09 05:02:52;;;;;;;9.00;8.30;;;;;;;-141.70;100.00;74765.69;4985798;28;20803;-80
2023/09/09 05:05:38;;;;;;;8.90;8.30;;;;;;;-141.70;100.00;74765.69;4986314;28;20785;-81
2023/09/09 05:08:24;;;;;;;9.37;8.60;;;;;;;-141.70;100.00;74765.69;5001191;28;20436;-79
2023/09/09 05:11:10;;;;;;;9.40;8.60;;;;;;;-141.70;100.00;74765.69;4971221;28;21002;-80
2023/09/09 05:13:56;;;;;;;9.60;8.80;;;;;;;-141.70;100.00;74765.69;4985064;28;20791;-80
2023/09/09 05:16:42;;;;;;;9.63;8.93;;;;;;;-141.70;100.00;74765.69;4986106;28;20840;-79
2023/09/09 05:19:28;;;;;;;9.83;8.87;;;;;;;-141.70;100.00;74765.69;4979755;28;20821;-80
2023/09/09 05:22:13;;;;;;;9.47;8.70;;;;;;;-141.70;100.00;74765.69;5000140;28;20780;-79
2023/09/09 05:24:59;;;;;;;9.37;8.53;;;;;;;-141.70;100.00;74765.69;4985423;28;20781;-79
2023/09/09 05:27:44;;;;;;;9.40;8.70;;;;;;;-141.70;100.00;74765.69;4985379;28;20777;-79
2023/09/09 05:30:30;;;;;;;10.50;9.63;;;;;;;-141.70;100.00;74765.69;4987086;28;20830;-80
2023/09/09 05:33:17;;;;;;;9.57;8.77;;;;;;;-141.70;100.00;74765.69;5001574;28;20769;-79
2023/09/09 05:36:02;;;;;;;10.23;9.23;;;;;;;-141.70;100.00;74765.69;5000025;28;20824;-80
2023/09/09 05:38:48;;;;;;;9.17;8.30;;;;;;;-141.70;100.00;74765.69;4982253;28;20500;-80
2023/09/09 05:41:33;;;;;;;9.67;8.50;;;;;;;-141.70;100.00;74765.69;4987686;28;20801;-80
2023/09/09 05:44:20;;;;;;;9.70;8.90;;;;;;;-141.70;100.00;74765.69;4975051;28;20916;-80
2023/09/09 05:47:06;;;;;;;9.30;8.70;;;;;;;-141.70;100.00;74765.69;4978185;28;20789;-80
2023/09/09 05:49:55;;;;;;;9.70;8.97;;;;;;;-141.70;100.00;74765.69;4986049;28;20462;-80
2023/09/09 05:52:40;;;;;;;10.00;9.30;;;;;;;-141.70;100.00;74765.69;4984348;28;20997;-79
2023/09/09 05:55:28;;;;;;;10.07;9.27;;;;;;;-141.70;100.00;74765.69;4984764;28;20792;-80
2023/09/09 05:58:15;;;;;;;10.27;9.27;;;;;;;-141.70;100.00;74765.69;4983546;28;20934;-80
2023/09/09 06:01:00;;;;;;;10.07;9.27;;;;;;;-141.70;100.00;74765.69;4992172;28;20470;-80
2023/09/09 06:03:45;;;;;;;10.77;9.77;;;;;;;-141.70;100.00;74765.69;4979373;28;20434;-80
2023/09/09 06:06:35;;;;;;;11.07;10.27;;;;;;;-141.70;100.00;74765.69;4979116;28;21344;-79
2023/09/09 06:09:23;;;;;;;10.10;9.30;;;;;;;-141.70;100.00;74765.69;4988429;28;20902;-80
2023/09/09 06:12:09;;;;;;;11.43;10.37;;;;;;;-141.70;100.00;74765.69;4989578;28;21645;-80
2023/09/09 06:14:55;;;;;;;9.90;9.00;;;;;;;-141.70;100.00;74765.69;4981229;28;20438;-80
2023/09/09 06:17:41;;;;;;;11.37;10.20;;;;;;;-141.70;100.00;74765.69;4980000;28;20883;-80
2023/09/09 06:20:27;;;;;;;16.63;10.00;;;;;;;-141.70;100.00;74765.69;4979461;28;20470;-81
2023/09/09 06:23:14;;;;;;;11.37;9.30;;;;;;;-141.70;100.00;74765.69;4968187;28;20869;-80
2023/09/09 06:26:00;;;;;;;11.60;10.70;;;;;;;-141.70;100.00;74765.69;4974238;28;20781;-81
2023/09/09 06:28:46;;;;;;;9.60;8.90;;;;;;;-141.70;100.00;74765.69;4994106;28;20789;-80
2023/09/09 06:31:32;;;;;;;10.00;9.10;;;;;;;-141.70;100.00;74765.69;4974208;28;20498;-80
2023/09/09 06:34:17;;;;;;;11.10;10.30;;;;;;;-141.70;100.00;74765.69;4979848;28;20810;-81
2023/09/09 06:37:03;;;;;;;10.17;9.27;;;;;;;-141.70;100.00;74765.69;4994583;28;20834;-81
2023/09/09 06:39:50;;;;;;;11.50;10.53;;;;;;;-141.70;100.00;74765.69;4997605;28;20863;-80
2023/09/09 06:42:35;;;;;;;11.07;9.97;;;;;;;-141.70;100.00;74765.69;4995186;28;20921;-80
2023/09/09 06:45:21;;;;;;;11.37;10.57;;;;;;;-141.70;100.00;74765.69;4986470;28;20822;-80
2023/09/09 06:48:07;;;;;;;10.63;9.83;;;;;;;-141.70;100.00;74765.69;4994243;28;20780;-81
2023/09/09 06:50:52;;;;;;;9.87;9.00;;;;;;;-141.70;100.00;74765.69;4994970;28;20878;-81
2023/09/09 06:53:37;;;;;;;10.87;9.00;;;;;;;-141.70;100.00;74765.69;4994269;28;20773;-80
2023/09/09 06:56:24;;;;;;;10.20;9.20;;;;;;;-141.70;100.00;74765.69;4979414;28;20844;-80
2023/09/09 06:59:09;;;;;;;10.07;9.10;;;;;;;-141.70;100.00;74765.69;4994553;28;20824;-80
2023/09/09 07:01:54;;;;;;;10.00;9.30;;;;;;;-141.70;100.00;74765.69;4994111;28;20772;-80
2023/09/09 07:04:40;;;;;;;9.60;8.73;;;;;;;-141.70;100.00;74765.69;4993947;28;21108;-80
2023/09/09 07:07:25;;;;;;;11.33;9.27;;;;;;;-141.70;100.00;74765.69;4972337;28;20821;-81
2023/09/09 07:10:12;;;;;;;10.17;9.37;;;;;;;-141.70;100.00;74765.69;4970918;28;20828;-82
2023/09/09 07:12:59;;;;;;;9.73;8.93;;;;;;;-141.70;100.00;74765.69;4993815;28;20584;-81
2023/09/09 07:15:44;;;;;;;9.20;8.50;;;;;;;-141.70;100.00;74765.69;4986891;28;20802;-80
2023/09/09 07:18:29;;;;;;;10.00;9.30;;;;;;;-141.70;100.00;74765.69;4979147;28;20843;-80
2023/09/09 07:21:15;;;;;;;10.60;9.80;;;;;;;-141.70;100.00;74765.69;4971412;28;20453;-80
2023/09/09 07:24:00;;;;;;;8.80;8.20;;;;;;;-141.70;100.00;74765.69;4978718;28;20792;-80
2023/09/09 07:26:46;;;;;;;8.77;8.07;;;;;;;-141.70;100.00;74765.69;4976881;28;20795;-80
2023/09/09 07:29:33;;;;;;;9.87;8.87;;;;;;;-141.70;100.00;74765.69;4993727;28;20887;-80
2023/09/09 07:32:18;;;;;;;8.73;8.03;;;;;;;-141.70;100.00;74765.69;4976101;28;20837;-80
2023/09/09 07:35:04;;;;;;;8.97;8.17;;;;;;;-141.70;100.00;74765.69;4974450;28;20853;-80
2023/09/09 07:37:50;;;;;;;9.23;8.43;;;;;;;-141.70;100.00;74765.69;4972376;28;20926;-79
2023/09/09 07:40:36;;;;;;;8.27;7.53;;;;;;;-141.70;100.00;74765.69;4994792;28;20809;-80
2023/09/09 07:43:21;;;;;;;9.30;8.03;;;;;;;-141.70;100.00;74765.69;4994738;28;20438;-80
2023/09/09 07:46:09;;;;;;;9.27;8.57;;;;;;;-141.70;100.00;74765.69;4991114;28;20781;-80
2023/09/09 07:48:54;;;;;;;9.13;8.53;;;;;;;-141.70;100.00;74765.69;4996008;28;20792;-81
2023/09/09 07:51:40;;;;;;;8.60;8.00;;;;;;;-141.70;100.00;74765.69;4996488;28;20434;-80
2023/09/09 07:54:26;;;;;;;8.83;8.23;;;;;;;-141.70;100.00;74765.69;5000170;28;22254;-81
2023/09/09 07:57:12;;;;;;;8.40;7.80;;;;;;;-141.70;100.00;74765.69;4998012;28;21128;-79
2023/09/09 08:00:01;;;;;;;10.07;8.83;;;;;;;-141.70;100.00;74765.69;4995950;28;20829;-81
2023/09/09 08:02:59;;;;;;;9.10;8.23;;;;;;;-141.70;100.00;74765.69;4987569;28;20883;-81
2023/09/09 08:05:44;;;;;;;11.13;10.10;;;;;;;-141.70;100.00;74765.69;4983565;28;20824;-82
2023/09/09 08:08:30;;;;;;;9.63;8.83;;;;;;;-141.70;100.00;74765.69;4977615;28;20554;-80
2023/09/09 08:11:17;;;;;;;10.10;9.40;;;;;;;-141.70;100.00;74765.69;4977402;28;20415;-81
2023/09/09 08:14:03;;;;;;;9.77;9.00;;;;;;;-141.70;100.00;74765.69;4992211;28;20803;-80
2023/09/09 08:16:49;;;;;;;10.00;9.30;;;;;;;-141.70;100.00;74765.69;4995797;28;20916;-82
2023/09/09 08:19:36;;;;;;;9.73;8.80;;;;;;;-141.70;100.00;74765.69;4996717;28;20874;-82
2023/09/09 08:22:21;;;;;;;9.30;8.40;;;;;;;-141.70;100.00;74765.69;4998494;28;20497;-81
2023/09/09 08:25:11;;;;;;;9.47;8.23;;;;;;;-141.70;100.00;74765.69;4978688;28;20958;-81
2023/09/09 08:27:59;;;;;;;9.03;8.23;;;;;;;-141.70;100.00;74765.69;4992655;28;20464;-80
2023/09/09 08:30:46;;;;;;;9.30;8.60;;;;;;;-141.70;100.00;74765.69;4998262;28;20462;-81
2023/09/09 08:33:32;;;;;;;10.10;9.10;;;;;;;-141.70;100.00;74765.69;4996870;28;20792;-80
2023/09/09 08:36:27;;;;;;;9.40;8.67;;;;;;;-141.70;100.00;74765.69;4996393;28;20452;-80
2023/09/09 08:39:19;;;;;;;10.43;9.73;;;;;;;-141.70;100.00;74765.69;4995246;28;20441;-81
2023/09/09 08:42:16;;;;;;;9.93;9.23;;;;;;;-141.70;100.00;74765.69;4996638;28;20426;-81
2023/09/09 08:45:09;;;;;;;10.40;9.40;;;;;;;-141.70;100.00;74765.69;4996228;28;20513;-81
2023/09/09 08:47:57;;;;;;;10.30;9.47;;;;;;;-141.70;100.00;74765.69;4995153;28;20794;-80
2023/09/09 08:50:43;;;;;;;9.10;8.50;;;;;;;-141.70;100.00;74765.69;4997007;28;20450;-81
2023/09/09 08:53:32;;;;;;;9.70;8.90;;;;;;;-141.70;100.00;74765.69;4979241;28;20430;-82
2023/09/09 08:56:18;;;;;;;9.53;8.83;;;;;;;-141.70;100.00;74765.69;4980096;28;20770;-80
2023/09/09 08:59:05;;;;;;;11.40;10.60;;;;;;;-141.70;100.00;74765.69;4999178;28;20433;-82
2023/09/09 09:01:52;;;;;;;10.50;9.80;;;;;;;-141.70;100.00;74765.69;5000838;28;20781;-81
2023/09/09 09:04:38;;;;;;;10.03;9.30;;;;;;;-141.70;100.00;74765.69;4998412;28;20441;-81
2023/09/09 09:07:27;;;;;;;10.40;9.60;;;;;;;-141.70;100.00;74765.69;5001054;28;20782;-81
2023/09/09 09:10:14;;;;;;;10.70;9.67;;;;;;;-141.70;100.00;74765.69;5000665;28;20940;-82
2023/09/09 09:12:59;;;;;;;10.37;9.57;;;;;;;-141.70;100.00;74765.69;4999542;28;20813;-81
2023/09/09 09:15:47;;;;;;;10.57;9.97;;;;;;;-141.70;100.00;74765.69;4998597;28;20499;-82
2023/09/09 09:18:32;;;;;;;10.60;9.57;;;;;;;-141.70;100.00;74765.69;4989900;28;20504;-80
2023/09/09 09:21:19;;;;;;;11.03;10.23;;;;;;;-141.70;100.00;74765.69;4994736;28;21136;-80
2023/09/09 09:24:05;;;;;;;10.90;10.00;;;;;;;-141.70;100.00;74765.69;4995275;28;20748;-81
2023/09/09 09:26:51;;;;;;;11.80;10.87;;;;;;;-141.70;100.00;74765.69;4993909;28;20921;-81
2023/09/09 09:29:40;;;;;;;11.50;10.60;;;;;;;-141.70;100.00;74765.69;4995140;28;20834;-80
2023/09/09 09:32:40;;;;;;;11.00;10.20;;;;;;;-141.70;100.00;74765.69;4985973;28;20786;-81
2023/09/09 09:35:27;;;;;;;10.87;9.83;;;;;;;-141.70;100.00;74765.69;4997409;28;20869;-80
2023/09/09 09:38:13;;;;;;;12.30;11.33;;;;;;;-141.70;100.00;74765.69;4985103;28;20839;-81
2023/09/09 09:40:59;;;;;;;12.27;11.47;;;;;;;-141.70;100.00;74765.69;4999126;28;20797;-80
2023/09/09 09:43:47;;;;;;;12.57;11.40;;;;;;;-141.70;100.00;74765.69;4992918;28;21909;-81
2023/09/09 09:46:33;;;;;;;11.90;10.67;;;;;;;-141.70;100.00;74765.69;4998333;28;20824;-81
2023/09/09 09:49:18;;;;;;;11.37;10.37;;;;;;;-141.70;100.00;74765.69;4984374;28;20822;-81
2023/09/09 09:52:05;;;;;;;13.43;9.77;;;;;;;-141.70;100.00;74765.69;4984881;28;20816;-80
2023/09/09 09:54:51;;;;;;;11.10;9.93;;;;;;;-141.70;100.00;74765.69;4999161;28;20413;-82
2023/09/09 09:57:37;;;;;;;11.47;10.20;;;;;;;-141.70;100.00;74765.69;4999559;28;20899;-81
2023/09/09 10:00:24;;;;;;;10.43;9.53;;;;;;;-141.70;100.00;74765.69;4999652;28;20424;-81
2023/09/09 10:03:13;;;;;;;12.67;10.20;;;;;;;-141.70;100.00;74765.69;4984938;28;21033;-81
2023/09/09 10:05:59;;;;;;;10.77;9.67;;;;;;;-141.70;100.00;74765.69;4967199;28;20815;-81
2023/09/09 10:08:49;;;;;;;10.27;9.33;;;;;;;-141.70;100.00;74765.69;4980327;28;20793;-80
2023/09/09 10:11:43;;;;;;;11.63;9.80;;;;;;;-141.70;100.00;74765.69;4980709;28;20423;-81
2023/09/09 10:14:29;;;;;;;13.83;11.20;;;;;;;-141.70;100.00;74765.69;4980322;28;20763;-81
2023/09/09 10:17:18;;;;;;;10.93;9.93;;;;;;;-141.70;100.00;74765.69;4979661;28;20467;-81
2023/09/09 10:20:05;;;;;;;12.17;10.70;;;;;;;-141.70;100.00;74765.69;4979829;28;20809;-80
2023/09/09 10:22:55;;;;;;;12.93;10.50;;;;;;;-141.70;100.00;74765.69;4980229;28;20443;-80
2023/09/09 10:25:42;;;;;;;11.20;10.10;;;;;;;-141.70;100.00;74765.69;4980579;28;20394;-81
2023/09/09 10:28:29;;;;;;;12.90;9.57;;;;;;;-141.70;100.00;74765.69;4983989;28;20875;-80
2023/09/09 10:31:15;;;;;;;11.03;10.03;;;;;;;-141.70;100.00;74765.69;4984137;28;20859;-80
2023/09/09 10:34:06;;;;;;;13.53;9.60;;;;;;;-141.70;100.00;74765.69;4998422;28;20801;-81
2023/09/09 10:36:52;;;;;;;10.83;9.80;;;;;;;-141.70;100.00;74765.69;4999559;28;20826;-81
2023/09/09 10:39:39;;;;;;;12.73;9.40;;;;;;;-141.70;100.00;74765.69;4986071;28;20832;-80
2023/09/09 10:42:25;;;;;;;14.17;9.47;;;;;;;-141.70;100.00;74765.69;4980163;28;20781;-81
2023/09/09 10:45:24;;;;;;;12.53;9.67;;;;;;;-141.70;100.00;74765.69;4980525;28;20790;-81
2023/09/09 10:48:11;;;;;;;10.67;9.30;;;;;;;-141.70;100.00;74765.69;4964069;28;20856;-80
2023/09/09 10:50:58;;;;;;;9.43;8.60;;;;;;;-141.70;100.00;74765.69;4985875;28;20810;-80
2023/09/09 10:53:43;;;;;;;9.30;8.40;;;;;;;-141.70;100.00;74765.69;4997791;28;20793;-81
2023/09/09 10:56:28;;;;;;;10.33;9.13;;;;;;;-141.70;100.00;74765.69;4998929;28;20791;-81
2023/09/09 10:59:18;;;;;;;11.03;9.33;;;;;;;-141.70;100.00;74765.69;4997326;28;20863;-81
2023/09/09 11:02:11;;;;;;;9.40;8.50;;;;;;;-141.70;100.00;74765.69;4988154;28;20445;-81
2023/09/09 11:05:01;;;;;;;9.23;8.10;;;;;;;-141.70;100.00;74765.69;4998698;28;20947;-81
2023/09/09 11:07:47;;;;;;;9.83;8.77;;;;;;;-141.70;100.00;74765.69;4999357;28;20792;-82
2023/09/09 11:10:34;;;;;;;10.97;8.53;;;;;;;-141.70;100.00;74765.69;5000126;28;20464;-81
2023/09/09 11:13:19;;;;;;;10.20;9.20;;;;;;;-141.70;100.00;74765.69;4999266;28;21072;-81
2023/09/09 11:16:05;;;;;;;10.87;8.77;;;;;;;-141.70;100.00;74765.69;4998386;28;20995;-80
2023/09/09 11:18:52;;;;;;;10.07;9.07;;;;;;;-141.70;100.00;74765.69;4997184;28;20473;-81
2023/09/09 11:21:40;;;;;;;11.40;9.30;;;;;;;-141.70;100.00;74765.69;4990633;28;20439;-80
2023/09/09 11:24:26;;;;;;;12.43;9.40;;;;;;;-141.70;100.00;74765.69;4974299;28;20762;-80
2023/09/09 11:27:13;;;;;;;10.53;8.90;;;;;;;-141.70;100.00;74765.69;4960407;28;20431;-80
2023/09/09 11:29:59;;;;;;;12.47;8.73;;;;;;;-141.70;100.00;74765.69;4974284;28;20455;-80
2023/09/09 11:32:49;;;;;;;12.10;8.70;;;;;;;-141.70;100.00;74765.69;4996417;28;20443;-80
2023/09/09 11:35:35;;;;;;;13.43;9.07;;;;;;;-141.70;100.00;74765.69;5003688;28;20798;-80
2023/09/09 11:38:21;;;;;;;10.87;8.73;;;;;;;-141.70;100.00;74765.69;4974293;28;20517;-80
2023/09/09 11:41:08;;;;;;;9.53;8.43;;;;;;;-141.70;100.00;74765.69;4998869;28;20851;-80
2023/09/09 11:44:03;;;;;;;8.93;8.00;;;;;;;-141.70;100.00;74765.69;4994023;28;20773;-80
2023/09/09 11:46:50;;;;;;;16.63;7.47;;;;;;;-141.70;100.00;74765.69;4993514;28;20796;-80
2023/09/09 11:49:37;;;;;;;8.30;7.43;;;;;;;-141.70;100.00;74765.69;5001640;28;20458;-81
2023/09/09 11:52:23;;;;;;;14.70;8.13;;;;;;;-141.70;100.00;74765.69;4994892;28;20803;-81
2023/09/09 11:55:09;;;;;;;7.40;6.80;;;;;;;-141.70;100.00;74765.69;4996754;28;20792;-81
2023/09/09 11:57:56;;;;;;;10.70;8.50;;;;;;;-141.70;100.00;74765.69;4977529;28;20816;-81
2023/09/09 12:00:41;;;;;;;12.17;7.20;;;;;;;-141.70;100.00;74765.69;4977941;28;20836;-81
2023/09/09 12:03:27;;;;;;;10.17;7.67;;;;;;;-141.70;100.00;74765.69;4978250;28;20785;-81
2023/09/09 12:06:14;;;;;;;9.50;8.50;;;;;;;-141.70;100.00;74765.69;4998406;28;20442;-81
2023/09/09 12:08:59;;;;;;;10.63;7.20;;;;;;;-141.70;100.00;74765.69;4987553;28;20437;-81
2023/09/09 12:11:44;;;;;;;9.83;8.00;;;;;;;-141.70;100.00;74765.69;4978036;28;20432;-80
2023/09/09 12:14:31;;;;;;;11.63;7.47;;;;;;;-141.70;100.00;74765.69;4976854;28;20626;-81
2023/09/09 12:17:17;;;;;;;9.53;7.47;;;;;;;-141.70;100.00;74765.69;4991400;28;20774;-81
2023/09/09 12:20:05;;;;;;;12.47;7.87;;;;;;;-141.70;100.00;74765.69;4994648;28;20466;-81
2023/09/09 12:22:52;;;;;;;11.00;8.07;;;;;;;-141.70;100.00;74765.69;4994252;28;20824;-81
2023/09/09 12:25:37;;;;;;;11.40;7.80;;;;;;;-141.70;100.00;74765.69;4996196;28;20831;-80
2023/09/09 12:28:23;;;;;;;12.57;8.17;;;;;;;-141.70;100.00;74765.69;4995961;28;20520;-80
2023/09/09 12:31:10;;;;;;;8.90;8.07;;;;;;;-141.70;100.00;74765.69;4996123;28;20828;-79